createdAt,value
2018-06-15T00:00:46.394Z,1001.69
2018-06-15T00:01:46.358Z,1001.64
2018-06-15T00:02:46.351Z,1001.65
2018-06-15T00:03:46.337Z,1001.65
2018-06-15T00:04:46.324Z,1001.62
2018-06-15T00:05:46.339Z,1001.59
2018-06-15T00:06:46.307Z,1001.59
2018-06-15T00:07:46.295Z,1001.57
2018-06-15T00:08:46.290Z,1001.56
2018-06-15T00:09:46.269Z,1001.57
2018-06-15T00:10:46.289Z,1001.61
2018-06-15T00:11:46.325Z,1001.54
2018-06-15T00:12:46.249Z,1001.58
2018-06-15T00:13:46.226Z,1001.56
2018-06-15T00:14:46.217Z,1001.54
2018-06-15T00:15:46.234Z,1001.50
2018-06-15T00:16:46.207Z,1001.49
2018-06-15T00:17:46.191Z,1001.55
2018-06-15T00:18:46.175Z,1001.54
2018-06-15T00:19:46.166Z,1001.52
2018-06-15T00:20:46.187Z,1001.48
2018-06-15T00:21:46.141Z,1001.53
2018-06-15T00:22:46.131Z,1001.51
2018-06-15T00:23:46.119Z,1001.50
2018-06-15T00:24:46.128Z,1001.56
2018-06-15T00:25:46.101Z,1001.54
2018-06-15T00:26:46.092Z,1001.52
2018-06-15T00:27:46.076Z,1001.53
2018-06-15T00:28:46.067Z,1001.49
2018-06-15T00:29:46.057Z,1001.54
2018-06-15T00:30:46.045Z,1001.52
2018-06-15T00:31:46.036Z,1001.54
2018-06-15T00:32:46.023Z,1001.53
2018-06-15T00:33:46.003Z,1001.57
2018-06-15T00:34:45.995Z,1001.56
2018-06-15T00:35:45.990Z,1001.55
2018-06-15T00:36:45.972Z,1001.58
2018-06-15T00:37:45.963Z,1001.53
2018-06-15T00:38:45.950Z,1001.57
2018-06-15T00:39:45.939Z,1001.54
2018-06-15T00:40:45.929Z,1001.56
2018-06-15T00:41:45.915Z,1001.58
2018-06-15T00:42:45.903Z,1001.57
2018-06-15T00:43:45.899Z,1001.58
2018-06-15T00:44:45.886Z,1001.60
2018-06-15T00:45:45.869Z,1001.56
2018-06-15T00:46:45.888Z,1001.63
2018-06-15T00:47:45.847Z,1001.56
2018-06-15T00:48:45.834Z,1001.55
2018-06-15T00:49:45.834Z,1001.57
2018-06-15T00:50:45.838Z,1001.59
2018-06-15T00:51:45.808Z,1001.59
2018-06-15T00:52:45.803Z,1001.58
2018-06-15T00:53:45.779Z,1001.58
2018-06-15T00:54:45.774Z,1001.55
2018-06-15T00:55:45.816Z,1001.58
2018-06-15T00:56:45.747Z,1001.56
2018-06-15T00:57:45.768Z,1001.53
2018-06-15T00:58:45.727Z,1001.54
2018-06-15T00:59:45.714Z,1001.57
2018-06-15T01:00:45.701Z,1001.56
2018-06-15T01:01:45.698Z,1001.52
2018-06-15T01:02:45.683Z,1001.51
2018-06-15T01:03:45.673Z,1001.51
2018-06-15T01:04:45.663Z,1001.53
2018-06-15T01:05:45.645Z,1001.56
2018-06-15T01:06:45.640Z,1001.51
2018-06-15T01:07:45.629Z,1001.52
2018-06-15T01:08:45.646Z,1001.56
2018-06-15T01:09:45.610Z,1001.53
2018-06-15T01:10:45.607Z,1001.53
2018-06-15T01:11:45.583Z,1001.51
2018-06-15T01:12:45.576Z,1001.53
2018-06-15T01:13:45.593Z,1001.55
2018-06-15T01:14:45.549Z,1001.51
2018-06-15T01:15:45.559Z,1001.51
2018-06-15T01:16:45.533Z,1001.54
2018-06-15T01:17:45.517Z,1001.48
2018-06-15T01:18:45.507Z,1001.50
2018-06-15T01:19:45.495Z,1001.44
2018-06-15T01:20:45.538Z,1001.49
2018-06-15T01:21:45.478Z,1001.51
2018-06-15T01:22:45.465Z,1001.50
2018-06-15T01:23:45.476Z,1001.52
2018-06-15T01:24:45.444Z,1001.48
2018-06-15T01:25:45.426Z,1001.49
2018-06-15T01:26:45.418Z,1001.45
2018-06-15T01:27:45.407Z,1001.42
2018-06-15T01:28:45.411Z,1001.45
2018-06-15T01:29:45.389Z,1001.40
2018-06-15T01:30:45.381Z,1001.45
2018-06-15T01:31:45.366Z,1001.43
2018-06-15T01:32:45.365Z,1001.44
2018-06-15T01:33:45.344Z,1001.44
2018-06-15T01:34:45.356Z,1001.40
2018-06-15T01:35:45.320Z,1001.43
2018-06-15T01:36:45.312Z,1001.40
2018-06-15T01:37:45.294Z,1001.44
2018-06-15T01:38:45.314Z,1001.41
2018-06-15T01:39:45.277Z,1001.42
2018-06-15T01:40:45.263Z,1001.44
2018-06-15T01:41:45.257Z,1001.37
2018-06-15T01:42:45.247Z,1001.40
2018-06-15T01:43:45.233Z,1001.43
2018-06-15T01:44:45.253Z,1001.35
2018-06-15T01:45:45.207Z,1001.36
2018-06-15T01:46:45.198Z,1001.38
2018-06-15T01:47:45.196Z,1001.37
2018-06-15T01:48:45.194Z,1001.34
2018-06-15T01:49:45.166Z,1001.31
2018-06-15T01:50:45.160Z,1001.34
2018-06-15T01:51:45.143Z,1001.33
2018-06-15T01:52:45.131Z,1001.34
2018-06-15T01:53:45.126Z,1001.38
2018-06-15T01:54:45.123Z,1001.36
2018-06-15T01:55:45.109Z,1001.32
2018-06-15T01:56:45.106Z,1001.36
2018-06-15T01:57:45.082Z,1001.32
2018-06-15T01:58:45.076Z,1001.36
2018-06-15T01:59:45.058Z,1001.31
2018-06-15T02:00:45.076Z,1001.32
2018-06-15T02:01:45.041Z,1001.33
2018-06-15T02:02:45.033Z,1001.33
2018-06-15T02:03:45.027Z,1001.33
2018-06-15T02:04:45.009Z,1001.30
2018-06-15T02:05:44.997Z,1001.29
2018-06-15T02:06:44.990Z,1001.33
2018-06-15T02:07:44.983Z,1001.32
2018-06-15T02:08:44.981Z,1001.28
2018-06-15T02:09:44.949Z,1001.35
2018-06-15T02:10:44.940Z,1001.32
2018-06-15T02:11:44.956Z,1001.33
2018-06-15T02:12:44.914Z,1001.31
2018-06-15T02:13:44.910Z,1001.28
2018-06-15T02:14:44.899Z,1001.28
2018-06-15T02:15:44.888Z,1001.28
2018-06-15T02:16:44.879Z,1001.27
2018-06-15T02:17:44.862Z,1001.25
2018-06-15T02:18:44.850Z,1001.26
2018-06-15T02:19:44.841Z,1001.24
2018-06-15T02:20:44.835Z,1001.23
2018-06-15T02:21:44.820Z,1001.22
2018-06-15T02:22:44.952Z,1001.19
2018-06-15T02:23:44.800Z,1001.21
2018-06-15T02:24:44.788Z,1001.19
2018-06-15T02:25:44.777Z,1001.22
2018-06-15T02:26:44.767Z,1001.27
2018-06-15T02:27:44.788Z,1001.26
2018-06-15T02:28:44.739Z,1001.23
2018-06-15T02:29:44.740Z,1001.26
2018-06-15T02:30:44.730Z,1001.22
2018-06-15T02:31:44.715Z,1001.25
2018-06-15T02:32:44.705Z,1001.22
2018-06-15T02:33:44.694Z,1001.22
2018-06-15T02:34:44.690Z,1001.22
2018-06-15T02:35:44.713Z,1001.25
2018-06-15T02:36:44.656Z,1001.25
2018-06-15T02:37:44.677Z,1001.23
2018-06-15T02:38:44.669Z,1001.23
2018-06-15T02:39:44.628Z,1001.27
2018-06-15T02:40:44.623Z,1001.27
2018-06-15T02:41:44.609Z,1001.25
2018-06-15T02:42:44.594Z,1001.31
2018-06-15T02:43:44.580Z,1001.32
2018-06-15T02:44:44.575Z,1001.34
2018-06-15T02:45:44.561Z,1001.33
2018-06-15T02:46:44.547Z,1001.33
2018-06-15T02:47:44.566Z,1001.35
2018-06-15T02:48:44.533Z,1001.32
2018-06-15T02:49:44.541Z,1001.36
2018-06-15T02:50:44.507Z,1001.33
2018-06-15T02:51:44.500Z,1001.33
2018-06-15T02:52:44.485Z,1001.34
2018-06-15T02:53:44.476Z,1001.37
2018-06-15T02:54:44.489Z,1001.34
2018-06-15T02:55:44.446Z,1001.33
2018-06-15T02:56:44.438Z,1001.32
2018-06-15T02:57:44.435Z,1001.32
2018-06-15T02:58:44.420Z,1001.31
2018-06-15T02:59:44.412Z,1001.36
2018-06-15T03:00:44.395Z,1001.33
2018-06-15T03:01:44.419Z,1001.36
2018-06-15T03:02:44.397Z,1001.34
2018-06-15T03:03:44.419Z,1001.31
2018-06-15T03:04:44.411Z,1001.32
2018-06-15T03:05:44.345Z,1001.34
2018-06-15T03:06:44.334Z,1001.33
2018-06-15T03:07:44.319Z,1001.31
2018-06-15T03:08:44.309Z,1001.29
2018-06-15T03:09:44.299Z,1001.27
2018-06-15T03:10:44.322Z,1001.27
2018-06-15T03:11:44.286Z,1001.31
2018-06-15T03:12:44.271Z,1001.28
2018-06-15T03:13:44.260Z,1001.35
2018-06-15T03:14:44.255Z,1001.36
2018-06-15T03:15:44.242Z,1001.37
2018-06-15T03:16:44.255Z,1001.38
2018-06-15T03:17:44.215Z,1001.39
2018-06-15T03:18:44.204Z,1001.40
2018-06-15T03:19:44.195Z,1001.40
2018-06-15T03:20:44.178Z,1001.46
2018-06-15T03:21:44.190Z,1001.43
2018-06-15T03:22:44.168Z,1001.46
2018-06-15T03:23:44.155Z,1001.43
2018-06-15T03:24:44.248Z,1001.49
2018-06-15T03:25:44.135Z,1001.44
2018-06-15T03:26:44.153Z,1001.48
2018-06-15T03:27:44.113Z,1001.48
2018-06-15T03:28:44.099Z,1001.49
2018-06-15T03:29:44.086Z,1001.50
2018-06-15T03:30:44.075Z,1001.53
2018-06-15T03:31:44.069Z,1001.53
2018-06-15T03:32:44.050Z,1001.54
2018-06-15T03:33:44.043Z,1001.54
2018-06-15T03:34:44.036Z,1001.58
2018-06-15T03:35:44.059Z,1001.58
2018-06-15T03:36:44.027Z,1001.59
2018-06-15T03:37:44.008Z,1001.63
2018-06-15T03:38:44.008Z,1001.61
2018-06-15T03:39:43.973Z,1001.64
2018-06-15T03:40:43.964Z,1001.60
2018-06-15T03:41:43.958Z,1001.61
2018-06-15T03:42:43.950Z,1001.59
2018-06-15T03:43:43.954Z,1001.60
2018-06-15T03:44:43.930Z,1001.62
2018-06-15T03:45:43.916Z,1001.62
2018-06-15T03:46:43.902Z,1001.58
2018-06-15T03:47:43.937Z,1001.61
2018-06-15T03:48:43.884Z,1001.59
2018-06-15T03:49:43.885Z,1001.53
2018-06-15T03:50:43.858Z,1001.54
2018-06-15T03:51:43.845Z,1001.50
2018-06-15T03:52:43.836Z,1001.48
2018-06-15T03:53:43.832Z,1001.52
2018-06-15T03:54:43.818Z,1001.53
2018-06-15T03:55:43.813Z,1001.60
2018-06-15T03:56:43.803Z,1001.60
2018-06-15T03:57:43.785Z,1001.61
2018-06-15T03:58:43.812Z,1001.57
2018-06-15T03:59:43.758Z,1001.62
2018-06-15T04:00:43.751Z,1001.63
2018-06-15T04:01:43.738Z,1001.68
2018-06-15T04:02:43.731Z,1001.66
2018-06-15T04:03:43.722Z,1001.65
2018-06-15T04:04:43.730Z,1001.75
2018-06-15T04:05:43.698Z,1001.74
2018-06-15T04:06:43.710Z,1001.78
2018-06-15T04:07:43.709Z,1001.72
2018-06-15T04:08:43.670Z,1001.74
2018-06-15T04:09:43.662Z,1001.71
2018-06-15T04:10:43.642Z,1001.69
2018-06-15T04:11:43.629Z,1001.71
2018-06-15T04:12:43.618Z,1001.71
2018-06-15T04:13:43.615Z,1001.76
2018-06-15T04:14:43.603Z,1001.72
2018-06-15T04:15:43.591Z,1001.77
2018-06-15T04:16:43.583Z,1001.77
2018-06-15T04:17:43.587Z,1001.78
2018-06-15T04:18:43.560Z,1001.74
2018-06-15T04:19:43.622Z,1001.79
2018-06-15T04:20:43.546Z,1001.76
2018-06-15T04:21:43.532Z,1001.78
2018-06-15T04:22:43.513Z,1001.79
2018-06-15T04:23:43.512Z,1001.82
2018-06-15T04:24:43.505Z,1001.78
2018-06-15T04:25:43.525Z,1001.84
2018-06-15T04:26:43.491Z,1001.83
2018-06-15T04:27:43.462Z,1001.82
2018-06-15T04:28:43.453Z,1001.85
2018-06-15T04:29:43.445Z,1001.89
2018-06-15T04:30:43.456Z,1001.85
2018-06-15T04:31:43.426Z,1001.86
2018-06-15T04:32:43.403Z,1001.86
2018-06-15T04:33:43.394Z,1001.87
2018-06-15T04:34:43.389Z,1001.82
2018-06-15T04:35:43.396Z,1001.81
2018-06-15T04:36:43.383Z,1001.79
2018-06-15T04:37:43.354Z,1001.85
2018-06-15T04:38:43.345Z,1001.82
2018-06-15T04:39:43.335Z,1001.87
2018-06-15T04:40:43.322Z,1001.81
2018-06-15T04:41:43.310Z,1001.80
2018-06-15T04:42:43.320Z,1001.81
2018-06-15T04:43:43.350Z,1001.78
2018-06-15T04:44:43.272Z,1001.79
2018-06-15T04:45:43.268Z,1001.84
2018-06-15T04:46:43.286Z,1001.78
2018-06-15T04:47:43.269Z,1001.79
2018-06-15T04:48:43.237Z,1001.83
2018-06-15T04:49:43.223Z,1001.80
2018-06-15T04:50:43.207Z,1001.83
2018-06-15T04:51:43.205Z,1001.87
2018-06-15T04:52:43.193Z,1001.87
2018-06-15T04:53:43.182Z,1001.88
2018-06-15T04:54:43.167Z,1001.91
2018-06-15T04:55:43.152Z,1001.89
2018-06-15T04:56:43.141Z,1001.93
2018-06-15T04:57:43.135Z,1001.92
2018-06-15T04:58:43.128Z,1001.86
2018-06-15T04:59:43.167Z,1001.88
2018-06-15T05:00:43.103Z,1001.93
2018-06-15T05:01:43.091Z,1001.94
2018-06-15T05:02:43.082Z,1001.92
2018-06-15T05:03:43.063Z,1001.96
2018-06-15T05:04:43.054Z,1001.92
2018-06-15T05:05:43.050Z,1001.96
2018-06-15T05:06:43.038Z,1001.92
2018-06-15T05:07:43.064Z,1001.93
2018-06-15T05:08:43.012Z,1001.90
2018-06-15T05:09:43.017Z,1001.98
2018-06-15T05:10:42.998Z,1001.99
2018-06-15T05:11:42.996Z,1001.94
2018-06-15T05:12:42.973Z,1001.91
2018-06-15T05:13:42.966Z,1001.94
2018-06-15T05:14:42.949Z,1001.95
2018-06-15T05:15:42.936Z,1001.95
2018-06-15T05:16:42.930Z,1001.93
2018-06-15T05:17:42.914Z,1001.96
2018-06-15T05:18:42.941Z,1001.97
2018-06-15T05:19:42.901Z,1002.00
2018-06-15T05:20:42.927Z,1002.02
2018-06-15T05:21:42.885Z,1002.01
2018-06-15T05:22:42.860Z,1002.03
2018-06-15T05:23:42.861Z,1002.04
2018-06-15T05:24:42.844Z,1002.06
2018-06-15T05:25:42.873Z,1001.98
2018-06-15T05:26:42.826Z,1002.01
2018-06-15T05:27:42.810Z,1002.05
2018-06-15T05:28:42.826Z,1002.01
2018-06-15T05:29:42.810Z,1002.02
2018-06-15T05:30:42.785Z,1002.05
2018-06-15T05:31:42.774Z,1002.05
2018-06-15T05:32:42.756Z,1002.06
2018-06-15T05:33:42.808Z,1002.05
2018-06-15T05:34:42.765Z,1002.13
2018-06-15T05:35:42.723Z,1002.07
2018-06-15T05:36:42.712Z,1002.08
2018-06-15T05:37:42.724Z,1002.04
2018-06-15T05:38:43.716Z,1002.05
2018-06-15T05:39:42.681Z,1002.09
2018-06-15T05:40:42.702Z,1002.10
2018-06-15T05:41:42.659Z,1002.05
2018-06-15T05:42:42.701Z,1002.05
2018-06-15T05:43:42.669Z,1002.04
2018-06-15T05:44:42.629Z,1002.08
2018-06-15T05:45:42.649Z,1002.04
2018-06-15T05:46:42.619Z,1002.07
2018-06-15T05:47:42.599Z,1002.06
2018-06-15T05:48:42.590Z,1002.06
2018-06-15T05:49:42.574Z,1002.10
2018-06-15T05:50:42.565Z,1002.08
2018-06-15T05:51:42.585Z,1002.10
2018-06-15T05:52:42.547Z,1002.05
2018-06-15T05:53:42.536Z,1002.07
2018-06-15T05:54:42.523Z,1002.06
2018-06-15T05:55:42.551Z,1002.00
2018-06-15T05:56:42.541Z,1002.04
2018-06-15T05:57:42.507Z,1002.02
2018-06-15T05:58:42.469Z,1001.96
2018-06-15T05:59:42.464Z,1002.04
2018-06-15T06:00:42.467Z,1002.09
2018-06-15T06:01:42.441Z,1002.06
2018-06-15T06:02:42.462Z,1002.09
2018-06-15T06:03:42.423Z,1002.09
2018-06-15T06:04:42.416Z,1002.10
2018-06-15T06:05:42.416Z,1002.10
2018-06-15T06:06:42.432Z,1002.11
2018-06-15T06:07:42.380Z,1002.09
2018-06-15T06:08:42.381Z,1002.13
2018-06-15T06:09:42.357Z,1002.08
2018-06-15T06:10:42.360Z,1002.08
2018-06-15T06:11:42.338Z,1002.04
2018-06-15T06:12:42.325Z,1002.09
2018-06-15T06:13:42.348Z,1002.13
2018-06-15T06:14:42.312Z,1002.10
2018-06-15T06:15:42.301Z,1002.10
2018-06-15T06:16:42.277Z,1002.13
2018-06-15T06:17:42.267Z,1002.14
2018-06-15T06:18:42.268Z,1002.16
2018-06-15T06:19:42.313Z,1002.16
2018-06-15T06:20:42.232Z,1002.18
2018-06-15T06:21:42.223Z,1002.19
2018-06-15T06:22:42.212Z,1002.18
2018-06-15T06:23:42.207Z,1002.23
2018-06-15T06:24:42.220Z,1002.21
2018-06-15T06:25:42.184Z,1002.26
2018-06-15T06:26:42.218Z,1002.20
2018-06-15T06:27:42.160Z,1002.25
2018-06-15T06:28:42.146Z,1002.24
2018-06-15T06:29:42.139Z,1002.22
2018-06-15T06:30:42.141Z,1002.27
2018-06-15T06:31:42.138Z,1002.27
2018-06-15T06:32:42.139Z,1002.28
2018-06-15T06:33:42.094Z,1002.29
2018-06-15T06:34:42.084Z,1002.31
2018-06-15T06:35:42.101Z,1002.33
2018-06-15T06:36:42.080Z,1002.31
2018-06-15T06:37:42.056Z,1002.33
2018-06-15T06:38:42.036Z,1002.36
2018-06-15T06:39:42.028Z,1002.38
2018-06-15T06:40:42.015Z,1002.44
2018-06-15T06:41:42.022Z,1002.41
2018-06-15T06:42:41.995Z,1002.45
2018-06-15T06:43:42.007Z,1002.39
2018-06-15T06:44:41.977Z,1002.44
2018-06-15T06:45:41.969Z,1002.45
2018-06-15T06:46:41.996Z,1002.47
2018-06-15T06:47:41.940Z,1002.48
2018-06-15T06:48:41.930Z,1002.46
2018-06-15T06:49:41.921Z,1002.47
2018-06-15T06:50:41.908Z,1002.43
2018-06-15T06:51:41.894Z,1002.43
2018-06-15T06:52:41.916Z,1002.45
2018-06-15T06:53:41.883Z,1002.46
2018-06-15T06:54:41.867Z,1002.46
2018-06-15T06:55:41.854Z,1002.54
2018-06-15T06:56:41.848Z,1002.50
2018-06-15T06:57:41.861Z,1002.49
2018-06-15T06:58:41.818Z,1002.45
2018-06-15T06:59:41.808Z,1002.50
2018-06-15T07:00:41.798Z,1002.54
2018-06-15T07:01:41.791Z,1002.56
2018-06-15T07:02:41.771Z,1002.52
2018-06-15T07:03:41.791Z,1002.48
2018-06-15T07:04:41.785Z,1002.53
2018-06-15T07:05:41.739Z,1002.47
2018-06-15T07:06:41.733Z,1002.47
2018-06-15T07:07:41.719Z,1002.45
2018-06-15T07:08:41.718Z,1002.39
2018-06-15T07:09:41.750Z,1002.40
2018-06-15T07:10:41.681Z,1002.33
2018-06-15T07:11:41.678Z,1002.36
2018-06-15T07:12:41.663Z,1002.44
2018-06-15T07:13:41.649Z,1002.43
2018-06-15T07:14:41.669Z,1002.44
2018-06-15T07:15:41.632Z,1002.37
2018-06-15T07:16:41.625Z,1002.41
2018-06-15T07:17:41.605Z,1002.43
2018-06-15T07:18:41.605Z,1002.41
2018-06-15T07:19:41.608Z,1002.44
2018-06-15T07:20:41.585Z,1002.49
2018-06-15T07:21:41.591Z,1002.42
2018-06-15T07:22:41.552Z,1002.47
2018-06-15T07:23:41.577Z,1002.47
2018-06-15T07:24:41.542Z,1002.46
2018-06-15T07:25:41.519Z,1002.41
2018-06-15T07:26:41.515Z,1002.48
2018-06-15T07:27:41.506Z,1002.42
2018-06-15T07:28:41.491Z,1002.43
2018-06-15T07:29:41.502Z,1002.39
2018-06-15T07:30:41.482Z,1002.39
2018-06-15T07:31:41.477Z,1002.44
2018-06-15T07:32:41.466Z,1002.42
2018-06-15T07:33:41.521Z,1002.41
2018-06-15T07:34:41.454Z,1002.42
2018-06-15T07:35:41.421Z,1002.42
2018-06-15T07:36:41.403Z,1002.44
2018-06-15T07:37:41.395Z,1002.44
2018-06-15T07:38:41.383Z,1002.42
2018-06-15T07:39:41.373Z,1002.44
2018-06-15T07:40:41.416Z,1002.46
2018-06-15T07:41:41.352Z,1002.42
2018-06-15T07:42:41.340Z,1002.42
2018-06-15T07:43:41.324Z,1002.44
2018-06-15T07:44:41.318Z,1002.45
2018-06-15T07:45:41.304Z,1002.52
2018-06-15T07:46:41.326Z,1002.45
2018-06-15T07:47:41.314Z,1002.49
2018-06-15T07:48:41.272Z,1002.44
2018-06-15T07:49:41.259Z,1002.45
2018-06-15T07:50:41.256Z,1002.47
2018-06-15T07:51:41.240Z,1002.44
2018-06-15T07:52:41.249Z,1002.47
2018-06-15T07:53:41.218Z,1002.46
2018-06-15T07:54:41.203Z,1002.44
2018-06-15T07:55:41.202Z,1002.51
2018-06-15T07:56:41.183Z,1002.48
2018-06-15T07:57:41.196Z,1002.45
2018-06-15T07:58:41.165Z,1002.47
2018-06-15T07:59:41.217Z,1002.53
2018-06-15T08:00:41.140Z,1002.49
2018-06-15T08:01:41.136Z,1002.51
2018-06-15T08:02:41.114Z,1002.55
2018-06-15T08:03:41.125Z,1002.44
2018-06-15T08:04:41.096Z,1002.55
2018-06-15T08:05:41.090Z,1002.51
2018-06-15T08:06:41.096Z,1002.54
2018-06-15T08:07:41.066Z,1002.46
2018-06-15T08:08:41.076Z,1002.47
2018-06-15T08:09:41.038Z,1002.48
2018-06-15T08:10:41.037Z,1002.48
2018-06-15T08:11:41.026Z,1002.46
2018-06-15T08:12:41.013Z,1002.42
2018-06-15T08:13:41.032Z,1002.44
2018-06-15T08:14:40.987Z,1002.40
2018-06-15T08:15:40.974Z,1002.42
2018-06-15T08:16:40.977Z,1002.43
2018-06-15T08:17:40.950Z,1002.40
2018-06-15T08:18:40.946Z,1002.41
2018-06-15T08:19:40.950Z,1002.43
2018-06-15T08:20:40.939Z,1002.39
2018-06-15T08:21:40.905Z,1002.36
2018-06-15T08:22:40.906Z,1002.35
2018-06-15T08:23:40.908Z,1002.35
2018-06-15T08:24:40.877Z,1002.36
2018-06-15T08:25:40.924Z,1002.40
2018-06-15T08:26:40.850Z,1002.41
2018-06-15T08:27:40.896Z,1002.40
2018-06-15T08:28:40.860Z,1002.38
2018-06-15T08:29:40.816Z,1002.33
2018-06-15T08:30:40.817Z,1002.40
2018-06-15T08:31:40.803Z,1002.41
2018-06-15T08:32:40.789Z,1002.40
2018-06-15T08:33:40.809Z,1002.39
2018-06-15T08:34:40.768Z,1002.37
2018-06-15T08:35:40.760Z,1002.36
2018-06-15T08:36:40.748Z,1002.37
2018-06-15T08:37:40.740Z,1002.38
2018-06-15T08:38:40.718Z,1002.33
2018-06-15T08:39:40.731Z,1002.34
2018-06-15T08:40:40.701Z,1002.32
2018-06-15T08:41:40.689Z,1002.36
2018-06-15T08:42:40.683Z,1002.34
2018-06-15T08:43:40.672Z,1002.33
2018-06-15T08:44:40.690Z,1002.37
2018-06-15T08:45:40.651Z,1002.37
2018-06-15T08:46:40.634Z,1002.37
2018-06-15T08:47:40.623Z,1002.46
2018-06-15T08:48:40.612Z,1002.43
2018-06-15T08:49:40.609Z,1002.45
2018-06-15T08:50:40.624Z,1002.49
2018-06-15T08:51:40.595Z,1002.46
2018-06-15T08:52:40.605Z,1002.48
2018-06-15T08:53:40.565Z,1002.54
2018-06-15T08:54:40.556Z,1002.50
2018-06-15T08:55:40.537Z,1002.53
2018-06-15T08:56:40.551Z,1002.51
2018-06-15T08:57:40.519Z,1002.51
2018-06-15T08:58:40.519Z,1002.42
2018-06-15T08:59:40.494Z,1002.42
2018-06-15T09:00:40.483Z,1002.42
2018-06-15T09:01:40.492Z,1002.41
2018-06-15T09:02:40.468Z,1002.49
2018-06-15T09:03:40.456Z,1002.48
2018-06-15T09:04:40.452Z,1002.45
2018-06-15T09:05:40.453Z,1002.52
2018-06-15T09:06:40.459Z,1002.49
2018-06-15T09:07:40.453Z,1002.57
2018-06-15T09:08:40.437Z,1002.57
2018-06-15T09:09:40.432Z,1002.47
2018-06-15T09:10:40.373Z,1002.54
2018-06-15T09:11:40.363Z,1002.54
2018-06-15T09:12:40.385Z,1002.41
2018-06-15T09:13:40.349Z,1002.48
2018-06-15T09:14:40.336Z,1002.51
2018-06-15T09:15:40.345Z,1002.47
2018-06-15T09:16:40.336Z,1002.50
2018-06-15T09:17:40.308Z,1002.46
2018-06-15T09:18:40.325Z,1002.47
2018-06-15T09:19:40.296Z,1002.50
2018-06-15T09:20:40.272Z,1002.49
2018-06-15T09:21:40.258Z,1002.49
2018-06-15T09:22:40.292Z,1002.56
2018-06-15T09:23:40.255Z,1002.42
2018-06-15T09:24:40.223Z,1002.43
2018-06-15T09:25:40.218Z,1002.42
2018-06-15T09:26:40.210Z,1002.43
2018-06-15T09:27:40.202Z,1002.42
2018-06-15T09:28:40.202Z,1002.44
2018-06-15T09:29:40.187Z,1002.39
2018-06-15T09:30:40.164Z,1002.39
2018-06-15T09:31:40.198Z,1002.36
2018-06-15T09:32:40.201Z,1002.37
2018-06-15T09:33:40.152Z,1002.31
2018-06-15T09:34:40.255Z,1002.33
2018-06-15T09:35:40.109Z,1002.36
2018-06-15T09:36:40.105Z,1002.34
2018-06-15T09:37:40.090Z,1002.34
2018-06-15T09:38:40.114Z,1002.33
2018-06-15T09:39:40.117Z,1002.36
2018-06-15T09:40:40.058Z,1002.38
2018-06-15T09:41:40.048Z,1002.40
2018-06-15T09:42:40.035Z,1002.41
2018-06-15T09:43:40.023Z,1002.41
2018-06-15T09:44:40.051Z,1002.43
2018-06-15T09:45:39.998Z,1002.46
2018-06-15T09:46:40.033Z,1002.44
2018-06-15T09:47:40.007Z,1002.46
2018-06-15T09:48:39.992Z,1002.46
2018-06-15T09:49:39.984Z,1002.49
2018-06-15T09:50:40.028Z,1002.47
2018-06-15T09:51:39.939Z,1002.47
2018-06-15T09:52:39.928Z,1002.47
2018-06-15T09:53:39.915Z,1002.51
2018-06-15T09:54:39.903Z,1002.47
2018-06-15T09:55:39.919Z,1002.49
2018-06-15T09:56:39.880Z,1002.43
2018-06-15T09:57:39.869Z,1002.46
2018-06-15T09:58:39.874Z,1002.42
2018-06-15T09:59:39.873Z,1002.40
2018-06-15T10:00:39.895Z,1002.40
2018-06-15T10:01:39.866Z,1002.41
2018-06-15T10:02:39.815Z,1002.39
2018-06-15T10:03:39.801Z,1002.39
2018-06-15T10:04:39.791Z,1002.41
2018-06-15T10:05:39.790Z,1002.42
2018-06-15T10:06:39.801Z,1002.43
2018-06-15T10:07:39.772Z,1002.42
2018-06-15T10:08:39.757Z,1002.42
2018-06-15T10:09:39.754Z,1002.42
2018-06-15T10:10:39.769Z,1002.54
2018-06-15T10:11:39.764Z,1002.51
2018-06-15T10:12:39.769Z,1002.53
2018-06-15T10:13:39.722Z,1002.50
2018-06-15T10:14:39.693Z,1002.51
2018-06-15T10:15:39.676Z,1002.45
2018-06-15T10:16:39.694Z,1002.48
2018-06-15T10:17:39.700Z,1002.51
2018-06-15T10:18:39.648Z,1002.50
2018-06-15T10:19:39.642Z,1002.45
2018-06-15T10:20:39.654Z,1002.51
2018-06-15T10:21:39.644Z,1002.49
2018-06-15T10:22:39.628Z,1002.48
2018-06-15T10:23:39.610Z,1002.43
2018-06-15T10:24:39.576Z,1002.45
2018-06-15T10:25:39.572Z,1002.44
2018-06-15T10:26:39.562Z,1002.39
2018-06-15T10:27:39.552Z,1002.33
2018-06-15T10:28:39.552Z,1002.37
2018-06-15T10:29:39.565Z,1002.40
2018-06-15T10:30:39.522Z,1002.36
2018-06-15T10:31:39.541Z,1002.41
2018-06-15T10:32:39.539Z,1002.38
2018-06-15T10:33:39.579Z,1002.36
2018-06-15T10:34:39.475Z,1002.36
2018-06-15T10:35:39.467Z,1002.41
2018-06-15T10:36:39.574Z,1002.35
2018-06-15T10:37:39.440Z,1002.34
2018-06-15T10:38:39.464Z,1002.34
2018-06-15T10:39:39.430Z,1002.46
2018-06-15T10:40:39.416Z,1002.37
2018-06-15T10:41:39.410Z,1002.35
2018-06-15T10:42:39.422Z,1002.38
2018-06-15T10:43:39.474Z,1002.38
2018-06-15T10:44:39.369Z,1002.33
2018-06-15T10:45:39.382Z,1002.33
2018-06-15T10:46:39.346Z,1002.36
2018-06-15T10:47:39.359Z,1002.29
2018-06-15T10:48:39.356Z,1002.36
2018-06-15T10:49:39.308Z,1002.37
2018-06-15T10:50:39.305Z,1002.43
2018-06-15T10:51:39.305Z,1002.47
2018-06-15T10:52:39.292Z,1002.44
2018-06-15T10:53:39.316Z,1002.49
2018-06-15T10:54:39.257Z,1002.48
2018-06-15T10:55:39.242Z,1002.46
2018-06-15T10:56:39.263Z,1002.45
2018-06-15T10:57:39.242Z,1002.47
2018-06-15T10:58:39.220Z,1002.41
2018-06-15T10:59:39.247Z,1002.34
2018-06-15T11:00:39.188Z,1002.36
2018-06-15T11:01:39.177Z,1002.30
2018-06-15T11:02:39.169Z,1002.32
2018-06-15T11:03:39.158Z,1002.44
2018-06-15T11:04:39.147Z,1002.39
2018-06-15T11:05:39.153Z,1002.48
2018-06-15T11:06:39.138Z,1002.35
2018-06-15T11:07:39.108Z,1002.42
2018-06-15T11:08:39.119Z,1002.40
2018-06-15T11:09:39.092Z,1002.38
2018-06-15T11:10:39.110Z,1002.33
2018-06-15T11:11:39.076Z,1002.34
2018-06-15T11:12:39.065Z,1002.38
2018-06-15T11:13:39.049Z,1002.34
2018-06-15T11:14:39.036Z,1002.35
2018-06-15T11:15:39.056Z,1002.27
2018-06-15T11:16:39.021Z,1002.28
2018-06-15T11:17:39.005Z,1002.25
2018-06-15T11:18:38.992Z,1002.27
2018-06-15T11:19:38.978Z,1002.28
2018-06-15T11:20:38.968Z,1002.29
2018-06-15T11:21:38.989Z,1002.25
2018-06-15T11:22:38.951Z,1002.26
2018-06-15T11:23:38.943Z,1002.20
2018-06-15T11:24:38.932Z,1002.20
2018-06-15T11:25:38.930Z,1002.24
2018-06-15T11:26:38.907Z,1002.19
2018-06-15T11:27:38.918Z,1002.11
2018-06-15T11:28:38.883Z,1002.16
2018-06-15T11:29:38.877Z,1002.11
2018-06-15T11:30:38.865Z,1002.11
2018-06-15T11:31:38.861Z,1002.07
2018-06-15T11:32:38.840Z,1002.13
2018-06-15T11:33:39.296Z,1002.13
2018-06-15T11:34:38.825Z,1002.11
2018-06-15T11:35:38.815Z,1002.10
2018-06-15T11:36:38.802Z,1002.08
2018-06-15T11:37:38.790Z,1002.09
2018-06-15T11:38:38.807Z,1002.08
2018-06-15T11:39:38.764Z,1002.04
2018-06-15T11:40:38.752Z,1002.12
2018-06-15T11:41:38.744Z,1002.04
2018-06-15T11:42:38.738Z,1002.08
2018-06-15T11:43:38.728Z,1002.08
2018-06-15T11:44:38.742Z,1002.11
2018-06-15T11:45:38.700Z,1002.10
2018-06-15T11:46:38.690Z,1002.12
2018-06-15T11:47:38.678Z,1002.10
2018-06-15T11:48:38.672Z,1002.07
2018-06-15T11:49:38.659Z,1002.10
2018-06-15T11:50:38.678Z,1002.06
2018-06-15T11:51:38.630Z,1002.06
2018-06-15T11:52:38.619Z,1002.06
2018-06-15T11:53:38.610Z,1002.01
2018-06-15T11:54:38.603Z,1002.04
2018-06-15T11:55:38.612Z,1002.02
2018-06-15T11:56:38.582Z,1001.99
2018-06-15T11:57:38.571Z,1002.03
2018-06-15T11:58:38.557Z,1002.02
2018-06-15T11:59:38.543Z,1001.99
2018-06-15T12:00:38.551Z,1001.97
2018-06-15T12:01:38.524Z,1001.97
2018-06-15T12:02:38.540Z,1001.97
2018-06-15T12:03:38.506Z,1002.04
2018-06-15T12:04:38.487Z,1001.98
2018-06-15T12:05:38.499Z,1001.99